createdAt,value
2018-01-06T00:00:12.200Z,6.35
2018-01-06T00:00:48.485Z,6.32
2018-01-06T00:01:23.793Z,6.36
2018-01-06T00:01:59.795Z,6.30
2018-01-06T00:02:35.417Z,6.35
2018-01-06T00:03:10.403Z,6.33
2018-01-06T00:03:45.526Z,6.32
2018-01-06T00:04:21.034Z,6.28
2018-01-06T00:04:56.464Z,6.28
2018-01-06T00:05:31.880Z,6.25
2018-01-06T00:06:07.128Z,6.29
2018-01-06T00:06:43.411Z,6.26
2018-01-06T00:07:18.826Z,6.28
2018-01-06T00:07:54.130Z,6.22
2018-01-06T00:08:29.545Z,6.26
2018-01-06T00:09:04.837Z,6.28
2018-01-06T00:09:40.451Z,6.22
2018-01-06T00:10:15.749Z,6.25
2018-01-06T00:10:51.189Z,6.28
2018-01-06T00:11:26.483Z,6.32
2018-01-06T00:12:02.019Z,6.30
2018-01-06T00:12:37.501Z,6.26
2018-01-06T00:13:12.817Z,6.18
2018-01-06T00:13:48.326Z,6.28
2018-01-06T00:14:23.772Z,6.26
2018-01-06T00:14:59.077Z,6.28
2018-01-06T00:15:34.488Z,6.26
2018-01-06T00:16:10.303Z,6.26
2018-01-06T00:16:45.517Z,6.25
2018-01-06T00:17:20.912Z,6.28
2018-01-06T00:17:56.032Z,6.29
2018-01-06T00:18:31.671Z,6.28
2018-01-06T00:19:07.237Z,6.25
2018-01-06T00:19:42.832Z,6.30
2018-01-06T00:20:18.051Z,6.22
2018-01-06T00:20:53.630Z,6.30
2018-01-06T00:21:29.135Z,6.28
2018-01-06T00:22:04.722Z,6.32
2018-01-06T00:22:40.065Z,6.30
2018-01-06T00:23:15.556Z,6.26
2018-01-06T00:23:51.064Z,6.28
2018-01-06T00:24:26.363Z,6.30
2018-01-06T00:25:01.782Z,6.21
2018-01-06T00:25:36.871Z,6.22
2018-01-06T00:26:12.188Z,6.25
2018-01-06T00:26:47.714Z,6.19
2018-01-06T00:27:23.050Z,6.28
2018-01-06T00:27:58.242Z,6.25
2018-01-06T00:28:33.563Z,6.13
2018-01-06T00:29:08.760Z,6.21
2018-01-06T00:29:44.082Z,6.21
2018-01-06T00:30:19.461Z,6.13
2018-01-06T00:30:55.303Z,6.22
2018-01-06T00:31:30.469Z,6.22
2018-01-06T00:32:05.809Z,6.14
2018-01-06T00:32:41.105Z,6.14
2018-01-06T00:33:16.335Z,6.10
2018-01-06T00:33:51.638Z,6.06
2018-01-06T00:34:27.350Z,6.14
2018-01-06T00:35:02.737Z,6.11
2018-01-06T00:35:38.258Z,6.03
2018-01-06T00:36:13.757Z,6.10
2018-01-06T00:36:49.184Z,6.07
2018-01-06T00:37:24.913Z,6.09
2018-01-06T00:38:00.340Z,6.07
2018-01-06T00:38:35.728Z,6.04
2018-01-06T00:39:11.157Z,6.07
2018-01-06T00:39:46.449Z,6.10
2018-01-06T00:40:21.872Z,6.04
2018-01-06T00:40:57.368Z,6.04
2018-01-06T00:41:32.600Z,6.06
2018-01-06T00:42:07.802Z,6.06
2018-01-06T00:42:43.640Z,6.09
2018-01-06T00:43:18.964Z,6.09
2018-01-06T00:43:54.177Z,6.01
2018-01-06T00:44:29.585Z,6.00
2018-01-06T00:45:05.124Z,5.95
2018-01-06T00:45:40.322Z,6.03
2018-01-06T00:46:15.752Z,6.00
2018-01-06T00:46:51.239Z,5.96
2018-01-06T00:47:26.664Z,6.04
2018-01-06T00:48:01.884Z,5.92
2018-01-06T00:48:37.111Z,5.98
2018-01-06T00:49:12.506Z,5.96
2018-01-06T00:49:47.728Z,5.96
2018-01-06T00:50:22.917Z,6.03
2018-01-06T00:50:58.233Z,5.96
2018-01-06T00:51:33.437Z,5.96
2018-01-06T00:52:08.547Z,5.98
2018-01-06T00:52:44.364Z,6.00
2018-01-06T00:53:19.719Z,5.96
2018-01-06T00:53:55.106Z,5.96
2018-01-06T00:54:30.331Z,5.93
2018-01-06T00:55:05.619Z,5.98
2018-01-06T00:55:41.443Z,6.00
2018-01-06T00:56:16.723Z,5.98
2018-01-06T00:56:52.135Z,5.96
2018-01-06T00:57:27.541Z,5.96
2018-01-06T00:58:02.868Z,5.95
2018-01-06T00:58:38.413Z,5.92
2018-01-06T00:59:14.015Z,5.92
2018-01-06T00:59:49.338Z,5.95
2018-01-06T01:00:24.859Z,5.95
2018-01-06T01:01:00.052Z,5.96
2018-01-06T01:01:35.277Z,5.98
2018-01-06T01:02:10.488Z,5.98
2018-01-06T01:02:45.625Z,5.92
2018-01-06T01:03:20.930Z,5.98
2018-01-06T01:03:56.387Z,5.92
2018-01-06T01:04:31.693Z,5.96
2018-01-06T01:05:07.125Z,5.93
2018-01-06T01:05:42.424Z,5.98
2018-01-06T01:06:17.840Z,5.85
2018-01-06T01:06:53.024Z,5.93
2018-01-06T01:07:28.331Z,5.96
2018-01-06T01:08:03.431Z,5.96
2018-01-06T01:08:38.847Z,5.86
2018-01-06T01:09:14.266Z,5.98
2018-01-06T01:09:49.914Z,5.95
2018-01-06T01:10:25.390Z,5.93
2018-01-06T01:11:00.809Z,5.96
2018-01-06T01:11:36.086Z,5.95
2018-01-06T01:12:11.497Z,5.81
2018-01-06T01:12:46.789Z,5.95
2018-01-06T01:13:22.195Z,5.81
2018-01-06T01:13:57.525Z,5.91
2018-01-06T01:14:32.817Z,5.82
2018-01-06T01:15:08.217Z,5.78
2018-01-06T01:15:43.743Z,5.82
2018-01-06T01:16:19.036Z,5.77
2018-01-06T01:16:54.448Z,5.78
2018-01-06T01:17:30.145Z,5.83
2018-01-06T01:18:05.462Z,5.83
2018-01-06T01:18:40.845Z,5.81
2018-01-06T01:19:16.356Z,5.82
2018-01-06T01:19:51.968Z,5.85
2018-01-06T01:20:27.291Z,5.83
2018-01-06T01:21:02.480Z,5.82
2018-01-06T01:21:37.997Z,5.85
2018-01-06T01:22:13.382Z,5.83
2018-01-06T01:22:48.808Z,5.83
2018-01-06T01:23:23.984Z,5.83
2018-01-06T01:23:59.407Z,5.85
2018-01-06T01:24:34.489Z,5.77
2018-01-06T01:25:10.044Z,5.81
2018-01-06T01:25:45.231Z,5.82
2018-01-06T01:26:20.369Z,5.81
2018-01-06T01:26:55.551Z,5.81
2018-01-06T01:27:31.003Z,5.81
2018-01-06T01:28:06.284Z,5.82
2018-01-06T01:28:41.498Z,5.81
2018-01-06T01:29:16.793Z,5.73
2018-01-06T01:29:52.112Z,5.81
2018-01-06T01:30:27.522Z,5.77
2018-01-06T01:31:02.836Z,5.70
2018-01-06T01:31:38.212Z,5.68
2018-01-06T01:32:13.638Z,5.71
2018-01-06T01:32:48.931Z,5.71
2018-01-06T01:33:24.363Z,5.66
2018-01-06T01:33:59.642Z,5.64
2018-01-06T01:34:35.259Z,5.71
2018-01-06T01:35:10.655Z,5.70
2018-01-06T01:35:46.030Z,5.73
2018-01-06T01:36:21.122Z,5.77
2018-01-06T01:36:56.648Z,5.74
2018-01-06T01:37:32.131Z,5.64
2018-01-06T01:38:07.439Z,5.57
2018-01-06T01:38:42.836Z,5.60
2018-01-06T01:39:18.246Z,5.63
2018-01-06T01:39:53.634Z,5.75
2018-01-06T01:40:29.053Z,5.56
2018-01-06T01:41:05.264Z,5.64
2018-01-06T01:41:40.481Z,5.63
2018-01-06T01:42:15.879Z,5.57
2018-01-06T01:42:51.002Z,5.67
2018-01-06T01:43:26.284Z,5.64
2018-01-06T01:44:01.702Z,5.63
2018-01-06T01:44:36.884Z,5.68
2018-01-06T01:45:12.303Z,5.70
2018-01-06T01:45:47.898Z,5.70
2018-01-06T01:46:23.744Z,5.68
2018-01-06T01:46:59.224Z,5.64
2018-01-06T01:47:36.830Z,5.68
2018-01-06T01:48:12.224Z,5.68
2018-01-06T01:48:47.440Z,5.67
2018-01-06T01:49:23.026Z,5.66
2018-01-06T01:49:58.637Z,5.57
2018-01-06T01:50:34.333Z,5.66
2018-01-06T01:51:09.565Z,5.64
2018-01-06T01:51:44.973Z,5.67
2018-01-06T01:52:20.295Z,5.66
2018-01-06T01:52:55.677Z,5.63
2018-01-06T01:53:30.902Z,5.60
2018-01-06T01:54:06.284Z,5.57
2018-01-06T01:54:42.010Z,5.63
2018-01-06T01:55:17.197Z,5.64
2018-01-06T01:55:52.807Z,5.56
2018-01-06T01:56:28.091Z,5.55
2018-01-06T01:57:03.540Z,5.55
2018-01-06T01:57:38.820Z,5.53
2018-01-06T01:58:14.349Z,5.66
2018-01-06T01:58:49.635Z,5.57
2018-01-06T01:59:24.866Z,5.52
2018-01-06T02:00:00.344Z,5.55
2018-01-06T02:00:36.653Z,5.56
2018-01-06T02:01:11.939Z,5.49
2018-01-06T02:01:47.351Z,5.56
2018-01-06T02:02:22.970Z,5.55
2018-01-06T02:02:58.183Z,5.55
2018-01-06T02:03:33.568Z,5.48
2018-01-06T02:04:08.999Z,5.50
2018-01-06T02:04:44.284Z,5.50
2018-01-06T02:05:19.390Z,5.50
2018-01-06T02:05:54.673Z,5.55
2018-01-06T02:06:30.092Z,5.55
2018-01-06T02:07:05.476Z,5.55
2018-01-06T02:07:40.826Z,5.53
2018-01-06T02:08:16.029Z,5.53
2018-01-06T02:08:51.664Z,5.52
2018-01-06T02:09:27.152Z,5.49
2018-01-06T02:10:02.560Z,5.49
2018-01-06T02:10:38.149Z,5.48
2018-01-06T02:11:13.356Z,5.49
2018-01-06T02:11:48.838Z,5.49
2018-01-06T02:12:24.151Z,5.50
2018-01-06T02:12:59.172Z,5.48
2018-01-06T02:13:34.414Z,5.49
2018-01-06T02:14:09.704Z,5.50
2018-01-06T02:14:44.926Z,5.45
2018-01-06T02:15:20.305Z,5.45
2018-01-06T02:15:55.524Z,5.45
2018-01-06T02:16:30.603Z,5.40
2018-01-06T02:17:06.019Z,5.41
2018-01-06T02:17:41.499Z,5.49
2018-01-06T02:18:16.546Z,5.40
2018-01-06T02:18:51.691Z,5.45
2018-01-06T02:19:27.662Z,5.38
2018-01-06T02:20:03.249Z,5.45
2018-01-06T02:20:38.881Z,5.46
2018-01-06T02:21:14.460Z,5.40
2018-01-06T02:21:49.572Z,5.45
2018-01-06T02:22:24.863Z,5.40
2018-01-06T02:23:00.181Z,5.37
2018-01-06T02:23:35.590Z,5.46
2018-01-06T02:24:11.107Z,5.40
2018-01-06T02:24:46.495Z,5.41
2018-01-06T02:25:22.105Z,5.45
2018-01-06T02:25:58.485Z,5.40
2018-01-06T02:26:33.897Z,5.40
2018-01-06T02:27:09.185Z,5.49
2018-01-06T02:27:44.700Z,5.38
2018-01-06T02:28:19.893Z,5.41
2018-01-06T02:28:55.442Z,5.49
2018-01-06T02:29:30.834Z,5.45
2018-01-06T02:30:05.939Z,5.40
2018-01-06T02:30:41.731Z,5.38
2018-01-06T02:31:17.246Z,5.40
2018-01-06T02:31:52.533Z,5.40
2018-01-06T02:32:27.956Z,5.37
2018-01-06T02:33:03.841Z,5.38
2018-01-06T02:33:39.964Z,5.37
2018-01-06T02:34:15.376Z,5.34
2018-01-06T02:34:50.690Z,5.38
2018-01-06T02:35:26.274Z,5.38
2018-01-06T02:36:01.470Z,5.34
2018-01-06T02:36:36.677Z,5.34
2018-01-06T02:37:11.989Z,5.43
2018-01-06T02:37:47.269Z,5.37
2018-01-06T02:38:23.085Z,5.43
2018-01-06T02:38:58.676Z,5.40
2018-01-06T02:39:34.119Z,5.40
2018-01-06T02:40:09.408Z,5.35
2018-01-06T02:40:44.828Z,5.35
2018-01-06T02:41:19.906Z,5.34
2018-01-06T02:41:55.221Z,5.32
2018-01-06T02:42:30.902Z,5.35
2018-01-06T02:43:06.512Z,5.38
2018-01-06T02:43:42.001Z,5.45
2018-01-06T02:44:17.421Z,5.35
2018-01-06T02:44:52.745Z,5.43
2018-01-06T02:45:28.656Z,5.43
2018-01-06T02:46:07.236Z,5.45
2018-01-06T02:46:42.853Z,5.34
2018-01-06T02:47:18.244Z,5.28
2018-01-06T02:47:53.561Z,5.38
2018-01-06T02:48:28.948Z,5.40
2018-01-06T02:49:04.266Z,5.40
2018-01-06T02:49:39.454Z,5.35
2018-01-06T02:50:14.894Z,5.43
2018-01-06T02:50:50.168Z,5.28
2018-01-06T02:51:25.390Z,5.34
2018-01-06T02:52:00.673Z,5.40
2018-01-06T02:52:35.986Z,5.43
2018-01-06T02:53:11.572Z,5.43
2018-01-06T02:53:46.987Z,5.32
2018-01-06T02:54:22.572Z,5.34
2018-01-06T02:54:57.877Z,5.32
2018-01-06T02:55:33.397Z,5.43
2018-01-06T02:56:08.505Z,5.31
2018-01-06T02:56:44.084Z,5.28
2018-01-06T02:57:19.608Z,5.27
2018-01-06T02:57:54.879Z,5.41
2018-01-06T02:58:30.401Z,5.31
2018-01-06T02:59:05.493Z,5.35
2018-01-06T02:59:40.699Z,5.37
2018-01-06T03:00:15.987Z,5.37
2018-01-06T03:00:51.428Z,5.38
2018-01-06T03:01:26.925Z,5.40
2018-01-06T03:02:01.933Z,5.28
2018-01-06T03:02:37.027Z,5.34
2018-01-06T03:03:12.241Z,5.38
2018-01-06T03:03:47.532Z,5.30
2018-01-06T03:04:23.047Z,5.34
2018-01-06T03:04:58.342Z,5.35
2018-01-06T03:05:33.766Z,5.40
2018-01-06T03:06:09.095Z,5.32
2018-01-06T03:06:44.213Z,5.31
2018-01-06T03:07:19.404Z,5.25
2018-01-06T03:07:54.813Z,5.30
2018-01-06T03:08:30.296Z,5.35
2018-01-06T03:09:05.811Z,5.35
2018-01-06T03:09:41.117Z,5.32
2018-01-06T03:10:16.530Z,5.38
2018-01-06T03:10:51.911Z,5.27
2018-01-06T03:11:27.348Z,5.32
2018-01-06T03:12:02.838Z,5.27
2018-01-06T03:12:38.056Z,5.28
2018-01-06T03:13:13.242Z,5.28
2018-01-06T03:13:48.261Z,5.31
2018-01-06T03:14:23.741Z,5.32
2018-01-06T03:14:59.157Z,5.32
2018-01-06T03:15:34.652Z,5.30
2018-01-06T03:16:10.369Z,5.23
2018-01-06T03:16:45.587Z,5.31
2018-01-06T03:17:21.099Z,5.31
2018-01-06T03:17:56.590Z,5.37
2018-01-06T03:18:31.811Z,5.23
2018-01-06T03:19:07.094Z,5.31
2018-01-06T03:19:42.514Z,5.28
2018-01-06T03:20:17.997Z,5.28
2018-01-06T03:20:53.327Z,5.32
2018-01-06T03:21:28.513Z,5.31
2018-01-06T03:22:03.863Z,5.32
2018-01-06T03:22:39.339Z,5.32
2018-01-06T03:23:14.453Z,5.25
2018-01-06T03:23:49.746Z,5.30
2018-01-06T03:24:25.152Z,5.34
2018-01-06T03:25:00.243Z,5.27
2018-01-06T03:25:35.755Z,5.20
2018-01-06T03:26:11.339Z,5.20
2018-01-06T03:26:46.653Z,5.28
2018-01-06T03:27:21.879Z,5.23
2018-01-06T03:27:57.300Z,5.25
2018-01-06T03:28:32.489Z,5.23
2018-01-06T03:29:07.710Z,5.25
2018-01-06T03:29:42.892Z,5.23
2018-01-06T03:30:18.111Z,5.28
2018-01-06T03:30:53.289Z,5.25
2018-01-06T03:31:28.708Z,5.22
2018-01-06T03:32:04.085Z,5.27
2018-01-06T03:32:39.430Z,5.25
2018-01-06T03:33:14.916Z,5.25
2018-01-06T03:33:50.027Z,5.25
2018-01-06T03:34:25.308Z,5.27
2018-01-06T03:35:00.918Z,5.16
2018-01-06T03:35:36.219Z,5.20
2018-01-06T03:36:11.536Z,5.13
2018-01-06T03:36:46.525Z,5.20
2018-01-06T03:37:21.732Z,5.19
2018-01-06T03:37:57.041Z,5.17
2018-01-06T03:38:32.160Z,5.14
2018-01-06T03:39:07.550Z,5.13
2018-01-06T03:39:42.872Z,5.17
2018-01-06T03:40:18.451Z,5.14
2018-01-06T03:40:53.762Z,5.13
2018-01-06T03:41:29.140Z,5.27
2018-01-06T03:42:04.654Z,5.20
2018-01-06T03:42:39.945Z,5.09
2018-01-06T03:43:15.591Z,5.14
2018-01-06T03:43:50.874Z,5.19
2018-01-06T03:44:26.278Z,5.14
2018-01-06T03:45:01.864Z,5.19
2018-01-06T03:45:37.605Z,5.14
2018-01-06T03:46:12.891Z,5.09
2018-01-06T03:46:48.206Z,5.20
2018-01-06T03:47:23.513Z,5.14
2018-01-06T03:47:59.121Z,5.13
2018-01-06T03:48:34.426Z,5.16
2018-01-06T03:49:09.733Z,4.98
2018-01-06T03:49:45.329Z,5.10
2018-01-06T03:50:20.838Z,5.12
2018-01-06T03:50:56.343Z,5.09
2018-01-06T03:51:31.953Z,5.07
2018-01-06T03:52:07.846Z,4.98
2018-01-06T03:52:43.062Z,5.10
2018-01-06T03:53:18.545Z,5.07
2018-01-06T03:53:53.691Z,5.02
2018-01-06T03:54:28.984Z,5.05
2018-01-06T03:55:04.407Z,5.01
2018-01-06T03:55:39.986Z,5.10
2018-01-06T03:56:15.319Z,5.02
2018-01-06T03:56:50.505Z,5.09
2018-01-06T03:57:26.041Z,5.05
2018-01-06T03:58:01.427Z,5.04
2018-01-06T03:58:36.747Z,5.09
2018-01-06T03:59:12.088Z,4.98
2018-01-06T03:59:47.410Z,5.07
2018-01-06T04:00:22.605Z,5.04
2018-01-06T04:00:57.814Z,5.05
2018-01-06T04:01:33.300Z,5.05
2018-01-06T04:02:08.712Z,5.09
2018-01-06T04:02:44.396Z,5.05
2018-01-06T04:03:19.737Z,5.02
2018-01-06T04:03:55.328Z,5.04
2018-01-06T04:04:30.775Z,5.01
2018-01-06T04:05:06.153Z,5.01
2018-01-06T04:05:41.368Z,5.05
2018-01-06T04:06:16.658Z,5.09
2018-01-06T04:06:52.093Z,5.04
2018-01-06T04:07:27.376Z,5.04
2018-01-06T04:08:02.784Z,5.07
2018-01-06T04:08:38.378Z,5.04
2018-01-06T04:09:13.700Z,5.02
2018-01-06T04:09:49.108Z,5.01
2018-01-06T04:10:24.621Z,4.99
2018-01-06T04:10:59.706Z,5.02
2018-01-06T04:11:35.136Z,5.07
2018-01-06T04:12:10.522Z,4.96
2018-01-06T04:12:45.853Z,4.99
2018-01-06T04:13:21.225Z,5.01
2018-01-06T04:13:56.537Z,5.05
2018-01-06T04:14:31.720Z,5.07
2018-01-06T04:15:07.166Z,5.02
2018-01-06T04:15:43.170Z,5.10
2018-01-06T04:16:18.483Z,4.98
2018-01-06T04:16:53.879Z,5.09
2018-01-06T04:17:29.196Z,5.09
2018-01-06T04:18:04.877Z,4.99
2018-01-06T04:18:40.190Z,5.09
2018-01-06T04:19:15.563Z,5.09
2018-01-06T04:19:50.776Z,5.05
2018-01-06T04:20:26.193Z,4.96
2018-01-06T04:21:01.615Z,4.98
2018-01-06T04:21:37.000Z,5.04
2018-01-06T04:22:12.316Z,4.98
2018-01-06T04:22:47.703Z,5.01
2018-01-06T04:23:23.033Z,4.95
2018-01-06T04:23:58.313Z,4.99
2018-01-06T04:24:33.647Z,4.99
2018-01-06T04:25:09.128Z,4.94
2018-01-06T04:25:47.280Z,4.95
2018-01-06T04:26:22.660Z,4.98
2018-01-06T04:26:58.274Z,5.07
2018-01-06T04:27:33.558Z,5.02
2018-01-06T04:28:08.974Z,4.94
2018-01-06T04:28:44.951Z,4.98
2018-01-06T04:29:20.170Z,5.01
2018-01-06T04:29:55.450Z,4.95
2018-01-06T04:30:30.961Z,4.98
2018-01-06T04:31:06.397Z,4.96
2018-01-06T04:31:41.802Z,4.92
2018-01-06T04:32:17.202Z,4.95
2018-01-06T04:32:52.497Z,4.99
2018-01-06T04:33:28.086Z,4.95
2018-01-06T04:34:03.395Z,4.99
2018-01-06T04:34:38.776Z,4.95
2018-01-06T04:35:13.998Z,4.98
2018-01-06T04:35:49.379Z,4.99
2018-01-06T04:36:24.618Z,4.98
2018-01-06T04:37:00.100Z,4.94
2018-01-06T04:37:35.412Z,4.99
2018-01-06T04:38:10.515Z,4.92
2018-01-06T04:38:46.027Z,4.95
2018-01-06T04:39:21.406Z,4.99
2018-01-06T04:39:56.819Z,5.01
2018-01-06T04:40:32.212Z,4.96
2018-01-06T04:41:07.517Z,4.92
2018-01-06T04:41:42.847Z,4.95
2018-01-06T04:42:18.459Z,4.92
2018-01-06T04:42:53.773Z,4.98
2018-01-06T04:43:28.995Z,4.98
2018-01-06T04:44:04.687Z,4.99
2018-01-06T04:44:40.605Z,4.98
2018-01-06T04:45:15.906Z,4.94
2018-01-06T04:45:51.946Z,4.98
2018-01-06T04:46:27.234Z,5.04
2018-01-06T04:47:02.576Z,5.04
2018-01-06T04:47:37.850Z,4.96
2018-01-06T04:48:13.464Z,5.09
2018-01-06T04:48:48.752Z,5.01
2018-01-06T04:49:24.164Z,5.04
2018-01-06T04:49:59.669Z,5.09
2018-01-06T04:50:35.186Z,5.14
2018-01-06T04:51:11.087Z,5.13
2018-01-06T04:51:46.401Z,5.13
2018-01-06T04:52:22.010Z,5.19
2018-01-06T04:52:57.226Z,5.13
2018-01-06T04:53:32.816Z,5.16
2018-01-06T04:54:08.233Z,5.16
2018-01-06T04:54:43.411Z,5.07
2018-01-06T04:55:18.923Z,5.20
2018-01-06T04:55:54.303Z,5.20
2018-01-06T04:56:29.916Z,5.07
2018-01-06T04:57:05.412Z,5.14
2018-01-06T04:57:40.648Z,5.14
2018-01-06T04:58:15.931Z,5.14
2018-01-06T04:58:51.238Z,5.16
2018-01-06T04:59:26.331Z,5.14
2018-01-06T05:00:01.741Z,5.22
2018-01-06T05:00:37.620Z,5.10
2018-01-06T05:01:13.344Z,5.13
2018-01-06T05:01:48.624Z,5.14
2018-01-06T05:02:23.942Z,5.10
2018-01-06T05:02:59.251Z,5.17
2018-01-06T05:03:34.763Z,5.13
2018-01-06T05:04:10.050Z,5.16
2018-01-06T05:04:45.560Z,5.14
2018-01-06T05:05:20.750Z,5.17
2018-01-06T05:05:56.064Z,5.13
2018-01-06T05:06:31.346Z,5.14
2018-01-06T05:07:06.854Z,5.14
2018-01-06T05:07:41.937Z,5.10
2018-01-06T05:08:17.390Z,5.12
2018-01-06T05:08:52.970Z,5.17
2018-01-06T05:09:28.288Z,5.13
2018-01-06T05:10:03.782Z,5.17
2018-01-06T05:10:39.695Z,5.12
2018-01-06T05:11:15.074Z,5.13
2018-01-06T05:11:50.588Z,5.12
2018-01-06T05:12:25.972Z,5.13
2018-01-06T05:13:01.188Z,5.17
2018-01-06T05:13:36.598Z,5.27
2018-01-06T05:14:12.124Z,5.17
2018-01-06T05:14:47.306Z,5.19
2018-01-06T05:15:22.821Z,5.19
2018-01-06T05:15:58.203Z,5.23
2018-01-06T05:16:33.816Z,5.25
2018-01-06T05:17:09.097Z,5.40
2018-01-06T05:17:44.518Z,5.35
2018-01-06T05:18:19.697Z,5.31
2018-01-06T05:18:55.245Z,5.40
2018-01-06T05:19:30.536Z,5.34
2018-01-06T05:20:05.757Z,5.35
2018-01-06T05:20:41.438Z,5.35
2018-01-06T05:21:16.748Z,5.37
2018-01-06T05:21:52.131Z,5.43
2018-01-06T05:22:27.443Z,5.45
2018-01-06T05:23:02.922Z,5.43
2018-01-06T05:23:38.331Z,5.35
2018-01-06T05:24:13.660Z,5.41
2018-01-06T05:24:48.771Z,5.53
2018-01-06T05:25:24.157Z,5.46
2018-01-06T05:25:59.666Z,5.41
2018-01-06T05:26:35.043Z,5.55
2018-01-06T05:27:10.567Z,5.53
2018-01-06T05:27:45.982Z,5.49
2018-01-06T05:28:21.295Z,5.52
2018-01-06T05:28:56.681Z,5.52
2018-01-06T05:29:32.231Z,5.60
2018-01-06T05:30:07.513Z,5.53
2018-01-06T05:30:44.930Z,5.59
2018-01-06T05:31:20.211Z,5.64
2018-01-06T05:31:55.724Z,5.59
2018-01-06T05:32:31.015Z,5.57
2018-01-06T05:33:06.425Z,5.63
2018-01-06T05:33:41.713Z,5.64
2018-01-06T05:34:17.339Z,5.60
2018-01-06T05:34:52.849Z,5.64
2018-01-06T05:35:28.367Z,5.64
2018-01-06T05:36:03.754Z,5.67
2018-01-06T05:36:39.166Z,5.63
2018-01-06T05:37:14.455Z,5.68
2018-01-06T05:37:49.666Z,5.71
2018-01-06T05:38:24.857Z,5.71
2018-01-06T05:39:00.269Z,5.60
2018-01-06T05:39:35.456Z,5.68
2018-01-06T05:40:10.813Z,5.71
2018-01-06T05:40:47.198Z,5.71
2018-01-06T05:41:22.517Z,5.75
2018-01-06T05:41:57.696Z,5.64
2018-01-06T05:42:33.009Z,5.68
2018-01-06T05:43:08.490Z,5.70
2018-01-06T05:43:44.199Z,5.71
2018-01-06T05:44:19.477Z,5.70
2018-01-06T05:44:54.790Z,5.66
2018-01-06T05:45:29.806Z,5.67
2018-01-06T05:46:06.715Z,5.67
2018-01-06T05:46:42.000Z,5.67
2018-01-06T05:47:17.607Z,5.74
2018-01-06T05:47:52.893Z,5.70
2018-01-06T05:48:28.094Z,5.74
2018-01-06T05:49:03.482Z,5.68
2018-01-06T05:49:38.794Z,5.63
2018-01-06T05:50:14.680Z,5.78
2018-01-06T05:50:51.127Z,5.71
2018-01-06T05:51:26.619Z,5.67
2018-01-06T05:52:02.120Z,5.74
2018-01-06T05:52:37.308Z,5.75
2018-01-06T05:53:12.521Z,5.68
2018-01-06T05:53:47.599Z,5.67
2018-01-06T05:54:24.718Z,5.71
2018-01-06T05:54:59.997Z,5.78
2018-01-06T05:55:35.309Z,5.77
2018-01-06T05:56:10.932Z,5.78
2018-01-06T05:56:46.439Z,5.75
2018-01-06T05:57:21.616Z,5.77
2018-01-06T05:57:56.872Z,5.77
2018-01-06T05:58:32.313Z,5.77
2018-01-06T05:59:07.724Z,5.81
2018-01-06T05:59:43.204Z,5.83
2018-01-06T06:00:18.610Z,5.81
2018-01-06T06:00:54.094Z,5.81
2018-01-06T06:01:29.129Z,5.81
2018-01-06T06:02:04.316Z,5.77
2018-01-06T06:02:39.428Z,5.81
2018-01-06T06:03:14.520Z,5.88
2018-01-06T06:03:50.028Z,5.81
2018-01-06T06:04:25.110Z,5.88
2018-01-06T06:05:00.620Z,5.85
2018-01-06T06:05:35.900Z,5.81
2018-01-06T06:06:11.415Z,5.83
2018-01-06T06:06:46.629Z,5.83
2018-01-06T06:07:21.953Z,5.86
2018-01-06T06:07:57.230Z,5.85
2018-01-06T06:08:32.836Z,5.86
2018-01-06T06:09:08.222Z,5.81
2018-01-06T06:09:43.537Z,5.85
2018-01-06T06:10:18.913Z,5.85
2018-01-06T06:10:54.223Z,5.88
2018-01-06T06:11:29.712Z,5.89
2018-01-06T06:12:05.047Z,5.83
2018-01-06T06:12:40.733Z,5.89
2018-01-06T06:13:15.840Z,5.93
2018-01-06T06:13:51.428Z,5.89
2018-01-06T06:14:26.838Z,5.89
2018-01-06T06:15:02.340Z,5.86
2018-01-06T06:15:37.660Z,5.89
2018-01-06T06:16:13.256Z,5.92
2018-01-06T06:16:48.799Z,5.98
2018-01-06T06:17:23.824Z,5.91
2018-01-06T06:17:59.437Z,5.93
2018-01-06T06:18:34.627Z,5.92
2018-01-06T06:19:10.341Z,5.92
2018-01-06T06:19:45.639Z,5.92
2018-01-06T06:20:21.458Z,6.01
2018-01-06T06:20:58.050Z,5.96
2018-01-06T06:21:33.789Z,5.95
2018-01-06T06:22:09.084Z,5.89
2018-01-06T06:22:44.617Z,5.96
2018-01-06T06:23:20.114Z,5.91
2018-01-06T06:23:55.528Z,5.98
2018-01-06T06:24:30.811Z,5.96
2018-01-06T06:25:06.230Z,5.96
2018-01-06T06:25:42.627Z,5.98
2018-01-06T06:26:19.247Z,5.93
2018-01-06T06:26:54.840Z,5.92
2018-01-06T06:27:30.185Z,5.91
2018-01-06T06:28:06.308Z,6.00
2018-01-06T06:28:41.740Z,6.00
2018-01-06T06:29:17.253Z,5.95
2018-01-06T06:29:53.080Z,5.95
2018-01-06T06:30:28.267Z,6.00
2018-01-06T06:31:03.472Z,5.96
2018-01-06T06:31:38.869Z,5.98
2018-01-06T06:32:14.789Z,6.00
2018-01-06T06:32:50.293Z,5.95
2018-01-06T06:33:25.460Z,5.96
2018-01-06T06:34:00.750Z,6.00
2018-01-06T06:34:36.165Z,6.00
2018-01-06T06:35:11.448Z,5.95
2018-01-06T06:35:46.667Z,5.98
2018-01-06T06:36:21.858Z,6.00
2018-01-06T06:36:57.061Z,6.03
2018-01-06T06:37:32.352Z,6.06
2018-01-06T06:38:07.563Z,6.00
2018-01-06T06:38:42.917Z,5.98
2018-01-06T06:39:18.637Z,6.01
2018-01-06T06:39:54.136Z,5.96
2018-01-06T06:40:29.559Z,6.04
2018-01-06T06:41:04.855Z,5.95
2018-01-06T06:41:40.789Z,6.01
2018-01-06T06:42:16.377Z,6.03
2018-01-06T06:42:51.892Z,5.98
2018-01-06T06:43:27.278Z,6.03
2018-01-06T06:44:02.815Z,6.01
2018-01-06T06:44:38.594Z,6.03
2018-01-06T06:45:13.606Z,6.00
2018-01-06T06:45:48.999Z,6.03
2018-01-06T06:46:24.212Z,6.01
2018-01-06T06:46:59.510Z,6.04
2018-01-06T06:47:35.136Z,6.06
2018-01-06T06:48:10.461Z,6.00
2018-01-06T06:48:45.906Z,6.07
2018-01-06T06:49:21.133Z,6.03
2018-01-06T06:49:56.575Z,6.04
2018-01-06T06:50:31.960Z,6.07
2018-01-06T06:51:07.188Z,6.04
2018-01-06T06:51:42.826Z,5.98
2018-01-06T06:52:18.193Z,6.10
2018-01-06T06:52:53.836Z,6.04
2018-01-06T06:53:29.044Z,6.07
2018-01-06T06:54:04.133Z,6.09
2018-01-06T06:54:39.701Z,6.14
2018-01-06T06:55:14.886Z,6.13
2018-01-06T06:55:50.509Z,6.09
2018-01-06T06:56:25.994Z,6.18
2018-01-06T06:57:02.033Z,6.14
2018-01-06T06:57:37.439Z,6.18
2018-01-06T06:58:12.749Z,6.13
2018-01-06T06:58:48.108Z,6.14
2018-01-06T06:59:23.382Z,6.18
2018-01-06T06:59:58.986Z,6.07
2018-01-06T07:00:34.401Z,6.13
2018-01-06T07:01:09.595Z,6.21
2018-01-06T07:01:44.925Z,6.14
2018-01-06T07:02:20.320Z,6.09
2018-01-06T07:02:55.646Z,6.19
2018-01-06T07:03:31.030Z,6.16
2018-01-06T07:04:06.247Z,6.26
2018-01-06T07:04:41.541Z,6.13
2018-01-06T07:05:16.890Z,6.19
2018-01-06T07:05:52.276Z,6.16
2018-01-06T07:06:27.589Z,6.21
2018-01-06T07:07:02.872Z,6.22
2018-01-06T07:07:38.484Z,6.16
2018-01-06T07:08:13.781Z,6.22
2018-01-06T07:08:49.105Z,6.18
2018-01-06T07:09:24.306Z,6.26
2018-01-06T07:09:59.513Z,6.28
2018-01-06T07:10:34.922Z,6.22
2018-01-06T07:11:10.344Z,6.26
2018-01-06T07:11:45.444Z,6.10
2018-01-06T07:12:20.876Z,6.19
2018-01-06T07:12:56.066Z,6.21
2018-01-06T07:13:31.296Z,6.18
2018-01-06T07:14:06.471Z,6.16
2018-01-06T07:14:41.784Z,6.22
2018-01-06T07:15:17.071Z,6.14
2018-01-06T07:15:52.511Z,6.14
2018-01-06T07:16:27.902Z,6.22
2018-01-06T07:17:03.406Z,6.22
2018-01-06T07:17:39.099Z,6.16
2018-01-06T07:18:14.522Z,6.22
2018-01-06T07:18:51.524Z,6.19
2018-01-06T07:19:26.828Z,6.22
2018-01-06T07:20:02.511Z,6.21
2018-01-06T07:20:38.921Z,6.29
2018-01-06T07:21:14.333Z,6.25
2018-01-06T07:21:49.653Z,6.22
2018-01-06T07:22:25.238Z,6.28
2018-01-06T07:23:00.452Z,6.26
2018-01-06T07:23:36.037Z,6.22
2018-01-06T07:24:11.760Z,6.26
2018-01-06T07:24:47.036Z,6.16
2018-01-06T07:25:22.343Z,6.21
2018-01-06T07:25:57.731Z,6.26
2018-01-06T07:26:32.868Z,6.22
2018-01-06T07:27:08.153Z,6.25
2018-01-06T07:27:43.658Z,6.26
2018-01-06T07:28:19.034Z,6.28
2018-01-06T07:28:54.348Z,6.26
2018-01-06T07:29:29.531Z,6.16
2018-01-06T07:30:05.062Z,6.14
2018-01-06T07:30:41.336Z,6.13
2018-01-06T07:31:17.055Z,6.16
2018-01-06T07:31:52.557Z,6.13
2018-01-06T07:32:27.869Z,6.14
2018-01-06T07:33:03.645Z,6.18
2018-01-06T07:33:39.160Z,6.14
2018-01-06T07:34:14.549Z,6.16
2018-01-06T07:34:49.860Z,6.16
2018-01-06T07:35:25.144Z,6.19
2018-01-06T07:36:00.553Z,6.22
2018-01-06T07:36:35.730Z,6.21
2018-01-06T07:37:10.971Z,6.22
2018-01-06T07:37:46.271Z,6.19
2018-01-06T07:38:21.696Z,6.22
2018-01-06T07:38:57.176Z,6.19
2018-01-06T07:39:32.386Z,6.22
2018-01-06T07:40:07.870Z,6.21
2018-01-06T07:40:43.381Z,6.22
2018-01-06T07:41:18.473Z,6.21
2018-01-06T07:41:53.691Z,6.21
2018-01-06T07:42:29.120Z,6.25
2018-01-06T07:43:04.435Z,6.26
2018-01-06T07:43:39.720Z,6.29
2018-01-06T07:44:15.226Z,6.19
2018-01-06T07:44:50.407Z,6.28
2018-01-06T07:45:25.717Z,6.22
2018-01-06T07:46:01.210Z,6.22
2018-01-06T07:46:36.323Z,6.19
2018-01-06T07:47:11.501Z,6.25
2018-01-06T07:47:46.740Z,6.26
2018-01-06T07:48:22.021Z,6.29
2018-01-06T07:48:57.436Z,6.29
2018-01-06T07:49:32.520Z,6.28
2018-01-06T07:50:07.845Z,6.26
2018-01-06T07:50:44.147Z,6.26
2018-01-06T07:51:19.462Z,6.28